This is the latest recevied weather packets stored in our database for station/object IR1ZYZ-3. If no packets are shown the sender has not sent any weather packets the latest 10 day(s).
| Time | Temp. | Humidity | Pressure | Rain* | Wind** | Luminosity | Snow |
|---|---|---|---|---|---|---|---|
| 1787582352 | 33.89° C | 45% | 1015.1 hPa | - | - | - | - |
| 1787581746 | 33.33° C | 45% | 1015.2 hPa | - | - | - | - |
| 1787581140 | 35.56° C | 41% | 1015.2 hPa | - | - | - | - |
| 1787580535 | 36.67° C | 39% | 1014.9 hPa | - | - | - | - |
| 1787579929 | 36.11° C | 39% | 1015.2 hPa | - | - | - | - |
| 1787579324 | 35.56° C | 41% | 1015.6 hPa | - | - | - | - |
| 1787578719 | 36.67° C | 42% | 1015.5 hPa | - | - | - | - |
| 1787578113 | 36.67° C | 42% | 1015.4 hPa | - | - | - | - |
| 1787577507 | 35.56° C | 47% | 1015.6 hPa | - | - | - | - |
| 1787576902 | 36.11° C | 45% | 1015.6 hPa | - | - | - | - |
| 1787576296 | 36.11° C | 45% | 1015.6 hPa | - | - | - | - |
| 1787575690 | 37.78° C | 41% | 1015.6 hPa | - | - | - | - |
| 1787575084 | 37.78° C | 39% | 1015.4 hPa | - | - | - | - |
| 1787574479 | 36.11° C | 38% | 1015.9 hPa | - | - | - | - |
| 1787573875 | 36.11° C | 37% | 1015.9 hPa | - | - | - | - |
| 1787573269 | 36.11° C | 38% | 1015.9 hPa | - | - | - | - |
| 1787572665 | 35.56° C | 41% | 1015.8 hPa | - | - | - | - |
| 1787572060 | 36.11° C | 42% | 1015.6 hPa | - | - | - | - |
| 1787571455 | 35° C | 43% | 1015.5 hPa | - | - | - | - |
| 1787570245 | 34.44° C | 44% | 1015.8 hPa | - | - | - | - |
| 1787569641 | 33.89° C | 46% | 1015.9 hPa | - | - | - | - |
| 1787569035 | 33.89° C | 45% | 1015.9 hPa | - | - | - | - |
| 1787568431 | 33.89° C | 45% | 1016 hPa | - | - | - | - |
| 1787567826 | 33.89° C | 46% | 1016 hPa | - | - | - | - |
| 1787567221 | 33.33° C | 48% | 1016.1 hPa | - | - | - | - |
* Rain since midnight (hover to see other rain measurements)
** Current wind speed in m/s (hover to see current wind gust speed)